Time;durP1;ratioP1;P1;durP2;ratioP2;P2;SDS_P1;SDS_P2;PMS_P1;PMS_P2;Temp;Humidity;BMP_temperature;BMP_pressure;BME280_temperature;BME280_humidity;BME280_pressure;Samples;Min_cycle;Max_cycle;Signal;HPM_P1;HPM_P2
2022/04/25 00:02:24;;;;;;;0.40;0.30;;;;;;;12.03;66.75;99186.96;103190;1279;138803;-68
2022/04/25 00:04:53;;;;;;;0.40;0.30;;;;;;;12.06;66.33;99183.08;103739;1279;97497;-68
2022/04/25 00:07:21;;;;;;;0.40;0.30;;;;;;;12.10;66.39;99184.48;103085;1279;138299;-67
2022/04/25 00:09:49;;;;;;;0.40;0.30;;;;;;;12.09;66.36;99184.52;103202;1279;94320;-68
2022/04/25 00:12:17;;;;;;;0.40;0.30;;;;;;;12.00;66.58;99181.20;103177;1279;94322;-68
2022/04/25 00:14:45;;;;;;;0.40;0.30;;;;;;;11.99;66.55;99180.41;103208;1279;139225;-69
2022/04/25 00:17:13;;;;;;;0.40;0.30;;;;;;;12.00;66.36;99178.92;103815;1279;98419;-70
2022/04/25 00:19:41;;;;;;;0.40;0.30;;;;;;;11.99;66.21;99178.43;103157;1279;138291;-69
2022/04/25 00:22:09;;;;;;;0.40;0.30;;;;;;;11.95;66.48;99179.37;103140;1279;94415;-70
2022/04/25 00:24:37;;;;;;;0.40;0.30;;;;;;;11.95;66.76;99179.33;103168;1279;138633;-68
2022/04/25 00:27:05;;;;;;;0.40;0.30;;;;;;;11.97;66.75;99180.16;103245;1279;108830;-69
2022/04/25 00:29:33;;;;;;;0.40;0.30;;;;;;;11.88;66.97;99174.69;103009;1279;99371;-69
2022/04/25 00:32:01;;;;;;;0.50;0.40;;;;;;;11.81;67.36;99172.73;103305;1279;138256;-68
2022/04/25 00:34:29;;;;;;;0.40;0.30;;;;;;;11.73;67.66;99177.05;103142;1279;95317;-68
2022/04/25 00:36:57;;;;;;;0.40;0.30;;;;;;;11.74;67.58;99175.63;103273;1279;138824;-68
2022/04/25 00:39:25;;;;;;;0.40;0.30;;;;;;;11.77;67.77;99180.98;103198;1279;108395;-69
2022/04/25 00:41:53;;;;;;;0.40;0.30;;;;;;;11.78;67.64;99184.80;103347;1279;98422;-69
2022/04/25 00:44:21;;;;;;;0.40;0.30;;;;;;;11.77;67.80;99187.19;103060;1279;138228;-68
2022/04/25 00:46:52;;;;;;;0.40;0.30;;;;;;;11.77;67.93;99186.30;103176;1279;94682;-67
2022/04/25 00:49:21;;;;;;;0.40;0.30;;;;;;;11.79;67.95;99187.27;103263;1279;138754;-69
2022/04/25 00:51:51;;;;;;;0.40;0.30;;;;;;;11.85;67.49;99181.60;103362;1279;108313;-68
2022/04/25 00:54:22;;;;;;;0.40;0.30;;;;;;;11.86;67.45;99178.39;103305;1279;99867;-69
2022/04/25 00:56:50;;;;;;;0.40;0.30;;;;;;;11.90;67.58;99175.48;103293;1279;138239;-68
2022/04/25 00:59:21;;;;;;;0.40;0.30;;;;;;;11.99;67.21;99174.36;103224;1279;95209;-67
2022/04/25 01:01:51;;;;;;;0.40;0.30;;;;;;;12.05;66.92;99173.89;103060;1279;137753;-67
2022/04/25 01:04:20;;;;;;;0.40;0.30;;;;;;;11.99;66.43;99168.14;103167;1279;108366;-70
2022/04/25 01:06:49;;;;;;;0.40;0.30;;;;;;;11.94;66.65;99165.34;103153;1279;140524;-69
2022/04/25 01:09:17;;;;;;;0.40;0.30;;;;;;;11.92;66.63;99160.30;103273;1279;109865;-68
2022/04/25 01:11:44;;;;;;;0.40;0.30;;;;;;;11.90;66.72;99158.60;103208;1279;94885;-68
2022/04/25 01:14:14;;;;;;;0.40;0.30;;;;;;;11.91;66.83;99157.67;103047;1279;137799;-68
2022/04/25 01:16:43;;;;;;;0.40;0.30;;;;;;;11.88;67.01;99154.95;103140;1279;109405;-68
2022/04/25 01:19:11;;;;;;;0.40;0.30;;;;;;;11.88;67.03;99148.58;103426;1279;139232;-68
2022/04/25 01:21:59;;;;;;;0.40;0.30;;;;;;;11.93;66.90;99153.85;103263;1279;109014;-68
2022/04/25 01:27:15;;;;;;;0.40;0.40;;;;;;;11.76;67.43;99146.00;103121;1281;94671;-69
2022/04/25 01:29:48;;;;;;;0.40;0.30;;;;;;;11.74;67.14;99148.73;103021;1281;108406;-68
2022/04/25 01:32:17;;;;;;;0.40;0.30;;;;;;;11.74;67.17;99144.27;103013;1279;138709;-68
2022/04/25 01:34:45;;;;;;;0.40;0.40;;;;;;;11.69;67.26;99141.86;103395;1279;109436;-69
2022/04/25 01:37:16;;;;;;;0.40;0.40;;;;;;;11.72;67.20;99141.73;103149;1279;138350;-68
2022/04/25 01:39:48;;;;;;;0.40;0.40;;;;;;;11.74;67.24;99140.04;103838;1279;94415;-67
2022/04/25 01:42:18;;;;;;;0.40;0.30;;;;;;;11.80;66.92;99137.60;103158;1279;108916;-66
2022/04/25 01:44:46;;;;;;;0.40;0.30;;;;;;;11.75;66.77;99131.48;103105;1279;137666;-69
2022/04/25 01:47:14;;;;;;;0.40;0.30;;;;;;;11.68;66.81;99130.38;103521;1279;108850;-69
2022/04/25 01:49:42;;;;;;;0.40;0.40;;;;;;;11.60;67.04;99129.34;104044;1279;138582;-68
2022/04/25 01:52:20;;;;;;;0.40;0.30;;;;;;;11.46;67.19;99130.26;103117;1279;94850;-69
2022/04/25 01:54:48;;;;;;;0.40;0.30;;;;;;;11.40;67.29;99140.16;103371;1279;138606;-69
2022/04/25 01:57:16;;;;;;;0.40;0.40;;;;;;;11.40;67.55;99139.45;103167;1279;99026;-68
2022/04/25 01:59:45;;;;;;;0.40;0.40;;;;;;;11.40;67.63;99139.80;103244;1279;108991;-70
2022/04/25 02:02:14;;;;;;;0.40;0.30;;;;;;;11.43;67.49;99136.12;103016;1279;139543;-69
2022/04/25 02:04:42;;;;;;;0.40;0.40;;;;;;;11.45;67.35;99139.02;103367;1279;94631;-68
2022/04/25 02:07:11;;;;;;;0.40;0.30;;;;;;;11.39;67.49;99136.61;103085;1279;138024;-67
2022/04/25 02:09:39;;;;;;;0.40;0.30;;;;;;;11.38;67.53;99134.02;103107;1281;97970;-68
2022/04/25 02:12:08;;;;;;;0.40;0.30;;;;;;;11.48;67.40;99134.43;103313;1279;108869;-69
2022/04/25 02:14:36;;;;;;;0.40;0.30;;;;;;;11.48;67.49;99134.79;103744;1279;138531;-69
2022/04/25 02:17:04;;;;;;;0.40;0.30;;;;;;;11.43;67.48;99136.08;103247;1279;94654;-66
2022/04/25 02:19:38;;;;;;;0.40;0.40;;;;;;;11.39;67.70;99132.20;103095;1279;138224;-69
2022/04/25 02:22:09;;;;;;;0.40;0.30;;;;;;;11.47;67.31;99132.71;103158;1279;99407;-67
2022/04/25 02:24:37;;;;;;;0.40;0.30;;;;;;;11.60;67.05;99130.83;103362;1278;138382;-67
2022/04/25 02:27:06;;;;;;;0.40;0.30;;;;;;;11.62;66.43;99127.85;103159;1279;94384;-69
2022/04/25 02:29:38;;;;;;;0.40;0.30;;;;;;;11.56;66.59;99131.73;103167;1279;94669;-68
2022/04/25 02:32:12;;;;;;;0.40;0.30;;;;;;;11.53;66.55;99133.27;103034;1279;138461;-68
2022/04/25 02:34:40;;;;;;;0.40;0.30;;;;;;;11.54;66.67;99134.45;103636;1279;98353;-68
2022/04/25 02:37:08;;;;;;;0.40;0.30;;;;;;;11.57;66.63;99131.83;103167;1279;140637;-70
2022/04/25 02:39:36;;;;;;;0.40;0.30;;;;;;;11.55;66.56;99134.40;103163;1279;94889;-69
2022/04/25 02:42:04;;;;;;;0.40;0.40;;;;;;;11.51;66.68;99135.71;103222;1279;95565;-69
2022/04/25 02:44:32;;;;;;;0.40;0.30;;;;;;;11.53;66.81;99133.94;103081;1279;138843;-68
2022/04/25 02:47:01;;;;;;;0.40;0.30;;;;;;;11.54;66.61;99137.85;103250;1279;98547;-68
2022/04/25 02:49:29;;;;;;;0.40;0.30;;;;;;;11.54;66.70;99136.94;103169;1279;138473;-67
2022/04/25 02:51:57;;;;;;;0.40;0.30;;;;;;;11.53;66.69;99129.88;103110;1279;94348;-69
2022/04/25 02:54:24;;;;;;;0.40;0.40;;;;;;;11.51;66.90;99131.78;103197;1279;94661;-69
2022/04/25 02:56:52;;;;;;;0.40;0.30;;;;;;;11.49;66.70;99132.22;103181;1279;139286;-68
2022/04/25 02:59:20;;;;;;;0.40;0.30;;;;;;;11.48;66.74;99134.04;103211;1279;99417;-67
2022/04/25 03:01:48;;;;;;;0.40;0.30;;;;;;;11.50;66.91;99137.66;103174;1279;137826;-68
2022/04/25 03:04:16;;;;;;;0.40;0.30;;;;;;;11.44;66.97;99140.11;103163;1279;94589;-69
2022/04/25 03:06:44;;;;;;;0.40;0.30;;;;;;;11.41;66.99;99144.20;103090;1279;137603;-74
2022/04/25 03:09:12;;;;;;;0.40;0.40;;;;;;;11.44;67.05;99143.85;103162;1279;109670;-67
2022/04/25 03:11:40;;;;;;;0.40;0.30;;;;;;;11.48;67.05;99144.55;103250;1279;99264;-69
2022/04/25 03:14:08;;;;;;;0.40;0.30;;;;;;;11.48;67.07;99140.10;103004;1279;139023;-67
2022/04/25 03:16:36;;;;;;;0.40;0.30;;;;;;;11.36;67.34;99142.67;103157;1279;94712;-69
2022/04/25 03:19:03;;;;;;;0.40;0.40;;;;;;;11.40;67.31;99143.86;104199;1279;138632;-68
2022/04/25 03:21:32;;;;;;;0.40;0.30;;;;;;;11.43;67.43;99141.61;103633;1279;107601;-66
2022/04/25 03:24:02;;;;;;;0.40;0.30;;;;;;;11.50;67.30;99148.15;103152;1279;99941;-68
2022/04/25 03:26:30;;;;;;;0.40;0.30;;;;;;;11.58;67.03;99145.48;103250;1279;137779;-67
2022/04/25 03:28:58;;;;;;;0.40;0.40;;;;;;;11.53;67.14;99149.79;103133;1279;94750;-69
2022/04/25 03:31:27;;;;;;;0.40;0.30;;;;;;;11.49;67.22;99149.45;103046;1279;138898;-69
2022/04/25 03:33:55;;;;;;;0.40;0.30;;;;;;;11.55;67.01;99151.84;103209;1279;108685;-68
2022/04/25 03:36:23;;;;;;;0.40;0.30;;;;;;;11.57;66.98;99156.38;103190;1279;99536;-69
2022/04/25 03:38:52;;;;;;;0.40;0.30;;;;;;;11.52;67.13;99157.66;103068;1279;137869;-68
2022/04/25 03:41:20;;;;;;;0.40;0.40;;;;;;;11.54;67.14;99157.58;103309;1279;95075;-69
2022/04/25 03:43:48;;;;;;;0.40;0.30;;;;;;;11.47;67.42;99158.42;103085;1279;138534;-68
2022/04/25 03:46:16;;;;;;;0.40;0.30;;;;;;;11.43;67.49;99161.66;103212;1279;107427;-69
2022/04/25 03:48:45;;;;;;;0.40;0.30;;;;;;;11.46;67.60;99161.38;103410;1279;138199;-68
2022/04/25 03:51:14;;;;;;;0.40;0.40;;;;;;;11.38;67.87;99164.77;103412;1279;108858;-69
2022/04/25 03:53:42;;;;;;;0.40;0.30;;;;;;;11.37;67.54;99164.13;103263;1279;94335;-70
2022/04/25 03:58:56;;;;;;;0.40;0.30;;;;;;;11.40;67.58;99160.58;103266;1279;108604;-68
2022/04/25 04:01:24;;;;;;;0.40;0.30;;;;;;;11.45;67.53;99162.66;103062;1279;138342;-68
2022/04/25 04:03:53;;;;;;;0.40;0.30;;;;;;;11.40;67.64;99166.29;103214;1279;109426;-67
2022/04/25 04:06:27;;;;;;;0.40;0.30;;;;;;;11.41;67.68;99168.54;103134;1279;94425;-67
2022/04/25 04:08:55;;;;;;;0.40;0.30;;;;;;;11.41;67.48;99170.33;102920;1279;137777;-69
2022/04/25 04:11:23;;;;;;;0.40;0.30;;;;;;;11.42;67.57;99171.17;102840;1279;277423;-68
2022/04/25 04:13:51;;;;;;;0.40;0.30;;;;;;;11.45;67.46;99172.23;102982;1279;139245;-69
2022/04/25 04:16:19;;;;;;;0.40;0.30;;;;;;;11.51;67.20;99175.34;103023;1279;109928;-68
2022/04/25 04:18:47;;;;;;;0.40;0.40;;;;;;;11.52;67.20;99177.95;103052;1279;138548;-67
2022/04/25 04:21:14;;;;;;;0.40;0.40;;;;;;;11.47;67.25;99178.90;103022;1279;94829;-68
2022/04/25 04:23:42;;;;;;;0.40;0.30;;;;;;;11.40;67.62;99182.25;103031;1279;108870;-69
2022/04/25 04:26:10;;;;;;;0.40;0.30;;;;;;;11.46;67.70;99188.91;103008;1279;138430;-68
2022/04/25 04:28:38;;;;;;;0.40;0.30;;;;;;;11.47;67.62;99187.23;103085;1279;109872;-70
2022/04/25 04:31:06;;;;;;;0.40;0.30;;;;;;;11.40;67.74;99191.33;102930;1279;138943;-68
2022/04/25 04:33:33;;;;;;;0.40;0.30;;;;;;;11.49;67.70;99196.36;103185;1279;94797;-69
2022/04/25 04:36:22;;;;;;;0.40;0.30;;;;;;;11.53;67.56;99199.91;102976;1279;108577;-70
2022/04/25 04:38:50;;;;;;;0.40;0.30;;;;;;;11.60;67.67;99204.94;103015;1279;138263;-69
2022/04/25 04:41:17;;;;;;;0.40;0.30;;;;;;;11.63;67.28;99202.27;103180;1279;110109;-68
2022/04/25 04:43:45;;;;;;;0.40;0.30;;;;;;;11.64;67.43;99208.79;103164;1279;139064;-69
2022/04/25 04:46:13;;;;;;;0.40;0.30;;;;;;;11.66;67.49;99212.81;103181;1279;94849;-68
2022/04/25 04:48:41;;;;;;;0.40;0.30;;;;;;;11.67;67.30;99213.83;103057;1279;138402;-68
2022/04/25 04:51:10;;;;;;;0.40;0.30;;;;;;;11.60;67.41;99213.61;103147;1279;100247;-68
2022/04/25 04:53:38;;;;;;;0.40;0.40;;;;;;;11.63;67.70;99214.54;103283;1279;108670;-69
2022/04/25 04:56:06;;;;;;;0.40;0.30;;;;;;;11.64;67.68;99216.29;102990;1281;138743;-69
2022/04/25 04:58:40;;;;;;;0.40;0.30;;;;;;;11.65;67.65;99212.67;103080;1279;95091;-69
2022/04/25 05:01:08;;;;;;;0.40;0.30;;;;;;;11.64;67.82;99218.91;103010;1279;138467;-68
2022/04/25 05:03:36;;;;;;;0.40;0.30;;;;;;;11.73;67.63;99222.93;103022;1279;99143;-70
2022/04/25 05:06:05;;;;;;;0.40;0.30;;;;;;;11.80;67.68;99222.94;103274;1279;108873;-70
2022/04/25 05:08:33;;;;;;;0.40;0.30;;;;;;;11.94;66.94;99225.65;104174;1279;138311;-72
2022/04/25 05:11:01;;;;;;;0.40;0.30;;;;;;;11.96;66.73;99227.85;104280;1278;94410;-69
2022/04/25 05:13:29;;;;;;;0.40;0.30;;;;;;;11.89;66.90;99224.11;104180;1279;138256;-69
2022/04/25 05:15:58;;;;;;;0.40;0.30;;;;;;;11.87;66.71;99223.67;104174;1279;99591;-68
2022/04/25 05:18:25;;;;;;;0.40;0.30;;;;;;;11.92;66.89;99222.71;103175;1279;109318;-70
2022/04/25 05:20:53;;;;;;;0.40;0.30;;;;;;;11.98;66.65;99222.43;103070;1279;138147;-68
2022/04/25 05:23:21;;;;;;;0.40;0.30;;;;;;;11.88;67.02;99220.05;103272;1279;94777;-69
2022/04/25 05:25:49;;;;;;;0.40;0.40;;;;;;;11.72;67.34;99220.87;103634;1279;137979;-70
2022/04/25 05:28:17;;;;;;;0.40;0.30;;;;;;;11.58;67.81;99221.58;104269;1279;99532;-70
2022/04/25 05:30:46;;;;;;;0.40;0.30;;;;;;;11.63;68.45;99225.75;104044;1281;139174;-71
2022/04/25 05:33:17;;;;;;;0.40;0.30;;;;;;;11.73;68.15;99222.42;104291;1279;94318;-68
2022/04/25 05:35:45;;;;;;;0.40;0.30;;;;;;;11.83;67.75;99227.23;103366;1279;94453;-68
2022/04/25 05:38:13;;;;;;;0.40;0.30;;;;;;;11.91;67.43;99227.42;103641;1279;139458;-70
2022/04/25 05:40:41;;;;;;;0.40;0.30;;;;;;;11.95;67.25;99229.69;103304;1279;99324;-68
2022/04/25 05:43:09;;;;;;;0.40;0.30;;;;;;;11.92;67.18;99233.05;103121;1279;137974;-67
2022/04/25 05:45:37;;;;;;;0.40;0.30;;;;;;;11.86;67.57;99238.49;103128;1279;94475;-67
2022/04/25 05:53:39;;;;;;;0.40;0.30;;;;;;;11.90;67.60;99234.38;103211;1281;98618;-67
2022/04/25 05:56:07;;;;;;;0.40;0.30;;;;;;;11.91;67.51;99239.83;103225;1278;137988;-69
2022/04/25 05:58:35;;;;;;;0.40;0.30;;;;;;;11.82;67.55;99247.59;103582;1279;94706;-68
2022/04/25 06:01:02;;;;;;;0.40;0.30;;;;;;;11.75;67.73;99248.26;103475;1279;139231;-66
2022/04/25 06:03:30;;;;;;;0.40;0.30;;;;;;;11.78;67.69;99247.60;103828;1279;107327;-69
2022/04/25 06:05:58;;;;;;;0.40;0.40;;;;;;;11.77;67.75;99251.41;103475;1281;99599;-66
2022/04/25 06:08:26;;;;;;;0.40;0.30;;;;;;;11.75;67.90;99256.46;103359;1279;138653;-66
2022/04/25 06:10:54;;;;;;;0.40;0.30;;;;;;;11.83;67.67;99255.33;103737;1279;95286;-67
2022/04/25 06:13:25;;;;;;;0.40;0.30;;;;;;;11.85;67.72;99258.10;103773;1279;137090;-68
2022/04/25 06:15:53;;;;;;;0.40;0.30;;;;;;;11.72;67.67;99258.55;103721;1279;108610;-68
2022/04/25 06:18:22;;;;;;;0.40;0.30;;;;;;;11.69;68.15;99262.23;103573;1279;97447;-66
2022/04/25 06:20:50;;;;;;;0.40;0.30;;;;;;;11.82;67.94;99260.91;103503;1279;138313;-68
2022/04/25 06:23:18;;;;;;;0.40;0.30;;;;;;;11.82;67.56;99263.06;103642;1279;94741;-66
2022/04/25 06:25:46;;;;;;;0.40;0.30;;;;;;;11.92;67.70;99263.79;103671;1279;137446;-66
2022/04/25 06:28:14;;;;;;;0.40;0.30;;;;;;;11.96;67.54;99259.34;103886;1279;110486;-67
2022/04/25 06:30:42;;;;;;;0.40;0.30;;;;;;;11.96;67.58;99260.27;103604;1279;138975;-65
2022/04/25 06:33:10;;;;;;;0.40;0.30;;;;;;;12.03;67.76;99261.48;103696;1279;108840;-66
2022/04/25 06:35:38;;;;;;;0.40;0.30;;;;;;;12.14;67.52;99264.83;103584;1279;94811;-67
2022/04/25 06:38:06;;;;;;;0.40;0.30;;;;;;;12.19;67.08;99261.72;103799;1279;138824;-65
2022/04/25 06:40:34;;;;;;;0.40;0.30;;;;;;;12.17;66.99;99265.05;103672;1278;108882;-67
2022/04/25 06:43:02;;;;;;;0.40;0.30;;;;;;;12.24;66.89;99267.00;103431;1279;138175;-68
2022/04/25 06:45:30;;;;;;;0.40;0.30;;;;;;;12.35;66.63;99265.02;103729;1278;108929;-67
2022/04/25 06:47:58;;;;;;;0.40;0.30;;;;;;;12.36;66.27;99271.23;103555;1279;94468;-67
2022/04/25 06:50:27;;;;;;;0.40;0.30;;;;;;;12.36;66.28;99271.39;103797;1279;139002;-68
2022/04/25 06:52:55;;;;;;;0.40;0.30;;;;;;;12.32;65.87;99276.77;103582;1280;108295;-68
2022/04/25 06:55:23;;;;;;;0.40;0.30;;;;;;;12.20;66.31;99277.34;103566;1279;138077;-68
2022/04/25 06:57:53;;;;;;;0.40;0.30;;;;;;;12.14;66.36;99280.14;103693;1279;108866;-68
2022/04/25 07:00:22;;;;;;;0.40;0.30;;;;;;;12.09;66.85;99282.00;103749;1279;94349;-67
2022/04/25 07:03:06;;;;;;;0.40;0.30;;;;;;;12.22;66.57;99284.20;104117;1279;138484;-68
2022/04/25 07:05:34;;;;;;;0.40;0.30;;;;;;;12.29;66.20;99280.31;103859;1278;108490;-66
2022/04/25 07:08:03;;;;;;;0.40;0.30;;;;;;;12.26;66.31;99285.63;103499;1279;138478;-69
2022/04/25 07:10:31;;;;;;;0.40;0.30;;;;;;;12.28;66.39;99284.09;103980;1279;108778;-68
2022/04/25 07:12:59;;;;;;;0.40;0.30;;;;;;;12.23;66.20;99287.55;103523;1279;138831;-68
2022/04/25 07:15:27;;;;;;;0.40;0.30;;;;;;;12.21;66.32;99289.94;103700;1279;94758;-66
2022/04/25 07:17:56;;;;;;;0.40;0.30;;;;;;;12.18;66.29;99295.98;103674;1279;108490;-68
2022/04/25 07:20:24;;;;;;;0.40;0.30;;;;;;;12.17;66.58;99296.19;103534;1279;138317;-67
2022/04/25 07:31:13;;;;;;;0.40;0.30;;;;;;;12.19;67.02;99304.61;103552;1279;138904;-68
2022/04/25 07:33:43;;;;;;;0.40;0.30;;;;;;;12.22;66.96;99304.86;103696;1279;99930;-67
2022/04/25 07:36:14;;;;;;;0.40;0.30;;;;;;;12.21;66.91;99310.27;103659;1279;108823;-67
2022/04/25 07:38:46;;;;;;;0.40;0.30;;;;;;;12.23;67.03;99313.17;103453;1279;138310;-66
2022/04/25 07:41:14;;;;;;;0.40;0.30;;;;;;;12.25;66.76;99311.64;103479;1279;94305;-66
2022/04/25 07:43:43;;;;;;;0.40;0.30;;;;;;;12.25;66.77;99317.14;103475;1280;137775;-66
2022/04/25 07:46:16;;;;;;;0.40;0.30;;;;;;;12.32;66.82;99319.84;103550;1279;99638;-67
2022/04/25 07:48:44;;;;;;;0.40;0.30;;;;;;;12.35;66.63;99324.65;103546;1279;138592;-68
2022/04/25 07:51:12;;;;;;;0.40;0.30;;;;;;;12.36;66.62;99321.38;103539;1279;94315;-68
2022/04/25 07:53:40;;;;;;;0.40;0.30;;;;;;;12.37;66.53;99324.56;103642;1279;95225;-65
2022/04/25 07:56:08;;;;;;;0.40;0.30;;;;;;;12.32;66.70;99326.21;103442;1280;138358;-66
2022/04/25 07:58:37;;;;;;;0.40;0.30;;;;;;;12.33;66.90;99327.95;103323;1279;98898;-67
2022/04/25 08:01:06;;;;;;;0.40;0.30;;;;;;;12.35;66.70;99327.86;103280;1279;138442;-68
2022/04/25 08:03:35;;;;;;;0.40;0.30;;;;;;;12.39;66.55;99331.75;103970;1279;94434;-68
2022/04/25 08:06:05;;;;;;;0.40;0.30;;;;;;;12.32;66.71;99333.54;104282;1279;94354;-68
2022/04/25 08:08:33;;;;;;;0.40;0.30;;;;;;;12.28;66.78;99339.26;104151;1279;137395;-67
2022/04/25 08:11:02;;;;;;;0.40;0.30;;;;;;;12.30;66.98;99340.06;104159;1280;98403;-67
2022/04/25 08:19:03;;;;;;;0.40;0.30;;;;;;;12.30;66.89;99346.81;103758;1278;139004;-68
2022/04/25 08:21:31;;;;;;;0.40;0.30;;;;;;;12.31;66.85;99345.31;103926;1279;108654;-68
2022/04/25 08:23:59;;;;;;;0.40;0.30;;;;;;;12.36;66.62;99350.94;103895;1278;99427;-67
2022/04/25 08:26:26;;;;;;;0.40;0.30;;;;;;;12.32;66.47;99348.33;104015;1279;139197;-68
2022/04/25 08:28:54;;;;;;;0.40;0.30;;;;;;;12.20;66.70;99347.30;104245;1279;95238;-67
2022/04/25 08:31:32;;;;;;;0.40;0.30;;;;;;;12.25;66.86;99347.64;104599;1279;139334;-68
2022/04/25 08:34:02;;;;;;;0.40;0.30;;;;;;;12.22;66.91;99350.23;104406;1278;108410;-68
2022/04/25 08:36:31;;;;;;;0.40;0.30;;;;;;;12.22;66.71;99352.52;104285;1278;99589;-66
2022/04/25 08:39:00;;;;;;;0.40;0.30;;;;;;;12.24;66.86;99357.44;104100;1278;137769;-68
2022/04/25 08:41:30;;;;;;;0.40;0.30;;;;;;;12.21;66.73;99360.41;104398;1278;94386;-67
2022/04/25 08:43:59;;;;;;;0.40;0.30;;;;;;;12.20;66.56;99359.05;103859;1280;138546;-67
2022/04/25 08:46:29;;;;;;;0.40;0.30;;;;;;;12.17;66.66;99360.06;104533;1278;108425;-67
2022/04/25 08:48:59;;;;;;;0.40;0.40;;;;;;;12.22;66.66;99353.27;103906;1281;138945;-69
2022/04/25 08:51:28;;;;;;;0.40;0.30;;;;;;;12.34;66.83;99355.13;104877;1280;107427;-69
2022/04/25 08:53:57;;;;;;;0.40;0.30;;;;;;;12.44;66.56;99362.48;104480;1280;95070;-67
2022/04/25 08:56:26;;;;;;;0.40;0.30;;;;;;;12.45;65.94;99363.66;104004;1278;138561;-67
2022/04/25 08:58:56;;;;;;;0.40;0.30;;;;;;;12.42;66.12;99372.55;103941;1280;107643;-69
2022/04/25 09:01:24;;;;;;;0.40;0.30;;;;;;;12.42;65.98;99371.29;104844;1279;138469;-68
2022/04/25 09:03:53;;;;;;;0.40;0.30;;;;;;;12.47;65.67;99372.48;104234;1280;108806;-67
2022/04/25 09:06:21;;;;;;;0.40;0.30;;;;;;;12.41;65.43;99373.49;104875;1278;95048;-68
2022/04/25 09:08:49;;;;;;;0.40;0.30;;;;;;;12.33;65.55;99376.02;103864;1278;137604;-68
2022/04/25 09:14:24;;;;;;;0.40;0.30;;;;;;;12.24;65.69;99385.89;103406;1285;137092;-68
2022/04/25 09:16:52;;;;;;;0.40;0.30;;;;;;;12.25;65.91;99389.60;103465;1285;108140;-68
2022/04/25 09:19:20;;;;;;;0.40;0.30;;;;;;;12.34;66.00;99393.61;103885;1280;138940;-67
2022/04/25 09:21:48;;;;;;;0.40;0.30;;;;;;;12.42;65.72;99391.94;104106;1278;94366;-68
2022/04/25 09:24:36;;;;;;;0.40;0.30;;;;;;;12.41;65.74;99390.92;104132;1280;108435;-67
2022/04/25 09:27:12;;;;;;;0.40;0.30;;;;;;;12.39;65.96;99394.23;104082;1281;137950;-67
2022/04/25 09:29:41;;;;;;;0.40;0.30;;;;;;;12.36;65.62;99397.23;104154;1281;109348;-69
2022/04/25 09:32:09;;;;;;;0.40;0.30;;;;;;;12.35;65.92;99401.55;104220;1280;139120;-69
2022/04/25 09:37:47;;;;;;;0.40;0.30;;;;;;;12.59;65.74;99399.09;104152;1278;138361;-68
2022/04/25 09:40:21;;;;;;;0.40;0.30;;;;;;;12.58;65.26;99407.20;104228;1281;99597;-66
2022/04/25 09:43:11;;;;;;;0.40;0.30;;;;;;;12.50;65.60;99409.38;104332;1281;138509;-67
2022/04/25 09:45:42;;;;;;;0.40;0.30;;;;;;;12.44;65.15;99411.27;104248;1281;95245;-67
2022/04/25 09:48:11;;;;;;;0.40;0.30;;;;;;;12.41;65.39;99412.67;104130;1281;95291;-67
2022/04/25 09:50:39;;;;;;;0.40;0.30;;;;;;;12.44;65.30;99412.86;104437;1279;138079;-67
2022/04/25 09:53:14;;;;;;;0.40;0.30;;;;;;;12.46;65.19;99421.30;104210;1279;99409;-69
2022/04/25 09:55:42;;;;;;;0.40;0.30;;;;;;;12.56;65.33;99420.80;104092;1279;138704;-66
2022/04/25 09:58:22;;;;;;;0.40;0.30;;;;;;;12.65;64.87;99422.17;104129;1281;96807;-68
2022/04/25 10:00:53;;;;;;;0.40;0.30;;;;;;;12.75;64.76;99426.48;104059;1280;137657;-67
2022/04/25 10:03:34;;;;;;;0.40;0.30;;;;;;;12.79;64.43;99425.15;104081;1280;109703;-67
2022/04/25 10:06:03;;;;;;;0.40;0.30;;;;;;;12.75;64.02;99431.08;104294;1280;98443;-67
2022/04/25 10:08:35;;;;;;;0.40;0.30;;;;;;;12.66;64.31;99434.89;104461;1281;139335;-66
2022/04/25 10:11:06;;;;;;;0.40;0.30;;;;;;;12.75;64.67;99437.83;103944;1279;95626;-66
2022/04/25 10:13:35;;;;;;;0.40;0.20;;;;;;;12.80;64.16;99437.95;103985;1281;138277;-65
2022/04/25 10:16:04;;;;;;;0.40;0.30;;;;;;;12.76;64.24;99440.98;103845;1279;109716;-69
2022/04/25 10:18:32;;;;;;;0.40;0.30;;;;;;;12.80;64.38;99439.37;103921;1278;99567;-67
2022/04/25 10:21:01;;;;;;;0.40;0.30;;;;;;;12.84;64.16;99438.11;103717;1281;138884;-69
2022/04/25 10:23:29;;;;;;;0.40;0.30;;;;;;;12.87;64.04;99439.38;103785;1281;95482;-69
2022/04/25 10:25:59;;;;;;;0.40;0.30;;;;;;;12.90;63.96;99439.20;103612;1281;138067;-68
2022/04/25 10:28:28;;;;;;;0.40;0.30;;;;;;;12.76;64.15;99438.70;104351;1281;108770;-67
2022/04/25 10:31:08;;;;;;;0.40;0.30;;;;;;;12.72;64.37;99443.15;103695;1278;138708;-66
2022/04/25 10:33:53;;;;;;;0.40;0.30;;;;;;;12.70;64.26;99443.80;104075;1277;108778;-68
2022/04/25 10:36:36;;;;;;;0.40;0.30;;;;;;;12.77;64.19;99443.23;103879;1277;95239;-67
2022/04/25 10:39:18;;;;;;;0.40;0.30;;;;;;;12.81;64.16;99447.51;103631;1277;137928;-68
2022/04/25 10:44:45;;;;;;;0.40;0.30;;;;;;;12.91;63.64;99450.77;103467;1278;138870;-66
2022/04/25 10:47:16;;;;;;;0.40;0.30;;;;;;;12.96;63.62;99450.84;103720;1280;108214;-67
2022/04/25 10:49:56;;;;;;;0.40;0.30;;;;;;;12.93;63.62;99451.71;103906;1277;138069;-66
2022/04/25 10:52:41;;;;;;;0.40;0.30;;;;;;;13.01;63.67;99455.36;103722;1278;96990;-66
2022/04/25 10:55:29;;;;;;;0.40;0.20;;;;;;;13.03;63.12;99458.33;103920;1278;138703;-66
2022/04/25 10:58:04;;;;;;;0.40;0.30;;;;;;;12.78;63.30;99460.33;103740;1280;99401;-68
2022/04/25 11:00:41;;;;;;;0.40;0.20;;;;;;;12.86;64.13;99464.18;103972;1278;109007;-67
2022/04/25 11:03:20;;;;;;;0.40;0.30;;;;;;;12.90;63.61;99467.16;103687;1279;139020;-67
2022/04/25 11:05:58;;;;;;;0.40;0.30;;;;;;;12.78;63.18;99466.73;104166;1279;95243;-67
2022/04/25 11:08:34;;;;;;;0.40;0.20;;;;;;;12.90;63.66;99469.89;103893;1281;138073;-67
2022/04/25 11:11:24;;;;;;;0.40;0.20;;;;;;;12.88;63.20;99468.17;103856;1281;99437;-67
2022/04/25 11:13:53;;;;;;;0.40;0.30;;;;;;;12.96;63.94;99469.89;103651;1280;138835;-67
2022/04/25 11:16:24;;;;;;;0.40;0.20;;;;;;;13.18;63.22;99476.08;103763;1277;95342;-67
2022/04/25 11:19:22;;;;;;;0.40;0.30;;;;;;;13.32;62.73;99477.13;103739;1277;138442;-67
2022/04/25 11:21:55;;;;;;;0.40;0.20;;;;;;;13.41;62.30;99475.31;104035;1277;109491;-67
2022/04/25 11:24:38;;;;;;;0.40;0.30;;;;;;;13.37;62.45;99479.41;104085;1278;99445;-67
2022/04/25 11:27:14;;;;;;;0.40;0.20;;;;;;;13.35;62.43;99480.04;104277;1277;139029;-67
2022/04/25 11:29:45;;;;;;;0.40;0.20;;;;;;;13.30;61.93;99481.91;104177;1277;95364;-67
2022/04/25 11:32:23;;;;;;;0.40;0.30;;;;;;;13.20;62.29;99485.61;103983;1278;137980;-67
2022/04/25 11:34:52;;;;;;;0.40;0.30;;;;;;;13.15;62.63;99489.27;103870;1277;107750;-67
2022/04/25 11:37:22;;;;;;;0.40;0.30;;;;;;;13.14;62.75;99490.89;103722;1278;138672;-66
2022/04/25 11:39:58;;;;;;;0.40;0.30;;;;;;;13.19;62.57;99494.23;103994;1281;109206;-66
2022/04/25 11:42:33;;;;;;;0.40;0.30;;;;;;;13.25;62.62;99498.23;104304;1280;95269;-66
2022/04/25 11:45:03;;;;;;;0.40;0.30;;;;;;;13.28;62.52;99499.27;103845;1278;141358;-67
2022/04/25 11:47:31;;;;;;;0.40;0.30;;;;;;;13.31;62.33;99499.47;104130;1277;109779;-67
2022/04/25 11:50:05;;;;;;;0.40;0.30;;;;;;;13.31;62.20;99500.23;103951;1280;138935;-67
2022/04/25 11:52:33;;;;;;;0.40;0.30;;;;;;;13.42;62.18;99499.51;104001;1277;108850;-68
2022/04/25 11:55:01;;;;;;;0.40;0.20;;;;;;;13.52;62.11;99496.64;104015;1277;138772;-67
2022/04/25 11:57:38;;;;;;;0.40;0.30;;;;;;;13.65;61.98;99493.45;104039;1277;95798;-66
2022/04/25 12:00:17;;;;;;;0.40;0.30;;;;;;;13.74;61.25;99494.05;104172;1278;109821;-66
2022/04/25 12:02:46;;;;;;;0.40;0.20;;;;;;;13.82;61.02;99496.80;104201;1278;138981;-67
2022/04/25 12:05:25;;;;;;;0.40;0.20;;;;;;;13.90;61.39;99498.70;104064;1280;108115;-68
2022/04/25 12:16:15;;;;;;;0.40;0.20;;;;;;;14.27;59.17;99500.58;104357;1278;99377;-66